Impacts TAF Board
For situational awareness. Not to be used for flight planning purposes.
IDs:

KCVG - Cincinnati Intl, KY, US

Issued at 2326 UTC 11 Dec 2018
Updated at 0248 UTC 12 Dec 2018
Potential Impact None Slight Moderate High
Time<<12/15Z 12/16Z 12/17Z 12/18Z 12/19Z 12/20Z 12/21Z 12/22Z 12/23Z 13/00Z 13/01Z 13/02Z 13/03Z>>
Type PRVL PRVL PRVL PRVL PRVL PRVL PRVL PRVL PRVL PRVL PRVL PRVL PRVL
VIS >6 >6 >6 >6 >6 >6 >6 >6 >6 >6 >6 >6 >6
CIG 250 250 50 50 50 50 50 50 50 50 50 35 35
Cover BKN BKN BKN BKN BKN BKN BKN BKN BKN BKN BKN OVC OVC
FltCat VFR VFR VFR VFR VFR VFR VFR VFR VFR VFR VFR VFR VFR
WX -- -- -- -- -- -- -- -- -- -- -- -- --
WDir 180 180 210 210 210 210 210 210 210 210 210 230 230
WSpd 10 10 12 12 12 12 12 12 12 12 12 8 8
WGst -- -- 20 20 20 20 20 20 20 20 20 -- --
Raw TAF
KCVG 112326Z 1200/1306 22007KT P6SM SCT250
  FM120700 21006KT P6SM BKN250
  FM121200 18010KT P6SM BKN250
  FM121700 21012G20KT P6SM BKN050
  FM130200 23008KT P6SM OVC035


METAR Board
Radar Display
Forecast Discussion
For situational awareness. Not to be used for flight planning purposes.